Time;durP1;ratioP1;P1;durP2;ratioP2;P2;SDS_P1;SDS_P2;PMS_P1;PMS_P2;Temp;Humidity;BMP_temperature;BMP_pressure;BME280_temperature;BME280_humidity;BME280_pressure;Samples;Min_cycle;Max_cycle;Signal;HPM_P1;HPM_P2
2021/12/29 00:01:04;;;;;;;9.05;4.35;;;10.50;81.60;;;;;;1868916;77;21090;-45
2021/12/29 00:03:33;;;;;;;7.12;5.20;;;10.50;81.70;;;;;;1905312;75;21087;-47
2021/12/29 00:06:02;;;;;;;8.40;4.95;;;10.50;81.80;;;;;;1868914;77;21109;-44
2021/12/29 00:08:32;;;;;;;8.78;5.25;;;10.50;82.10;;;;;;1905364;75;21075;-47
2021/12/29 00:11:01;;;;;;;8.18;4.15;;;10.50;82.00;;;;;;1868934;77;21132;-46
2021/12/29 00:13:31;;;;;;;8.70;4.58;;;10.50;82.40;;;;;;1905458;75;21085;-48
2021/12/29 00:16:01;;;;;;;6.42;4.67;;;10.50;82.30;;;;;;1868940;77;21046;-45
2021/12/29 00:18:33;;;;;;;7.22;4.78;;;10.50;82.40;;;;;;1905334;75;21109;-45
2021/12/29 00:21:03;;;;;;;7.15;5.05;;;10.50;82.50;;;;;;1905410;75;21545;-45
2021/12/29 00:23:33;;;;;;;7.10;4.78;;;10.50;82.20;;;;;;1868991;77;20998;-45
2021/12/29 00:26:02;;;;;;;8.55;4.50;;;10.40;82.40;;;;;;1905371;75;20996;-45
2021/12/29 00:28:32;;;;;;;6.55;4.83;;;10.40;82.40;;;;;;1868913;77;21132;-45
2021/12/29 00:31:01;;;;;;;7.70;5.30;;;10.40;82.40;;;;;;1905378;75;21136;-45
2021/12/29 00:33:48;;;;;;;6.83;4.37;;;10.40;82.70;;;;;;1828378;78;21030;-45
2021/12/29 00:36:35;;;;;;;5.87;4.70;;;10.40;82.70;;;;;;1907903;74;21075;-45
2021/12/29 00:39:18;;;;;;;7.80;4.97;;;10.30;83.20;;;;;;1831695;77;21034;-44
2021/12/29 00:42:05;;;;;;;8.40;5.28;;;10.30;82.80;;;;;;1905284;75;21104;-44
2021/12/29 00:44:51;;;;;;;8.88;4.78;;;10.30;83.00;;;;;;1868882;77;21181;-44
2021/12/29 00:47:21;;;;;;;8.03;5.62;;;10.30;83.00;;;;;;1905436;75;21015;-44
2021/12/29 00:49:50;;;;;;;8.65;5.87;;;10.20;83.70;;;;;;1869054;77;21100;-45
2021/12/29 00:52:20;;;;;;;8.93;5.40;;;10.20;83.20;;;;;;1905453;74;21000;-45
2021/12/29 00:54:49;;;;;;;9.23;5.58;;;10.20;83.50;;;;;;1868856;76;21018;-44
2021/12/29 00:57:18;;;;;;;11.25;6.10;;;10.20;83.50;;;;;;1905400;75;20999;-44
2021/12/29 00:59:48;;;;;;;10.43;5.87;;;10.20;83.70;;;;;;1910913;74;21054;-45
2021/12/29 01:02:18;;;;;;;8.45;5.33;;;10.10;83.70;;;;;;1924800;74;21108;-45
2021/12/29 01:04:47;;;;;;;10.60;5.45;;;10.10;83.90;;;;;;1924707;74;21535;-44
2021/12/29 01:07:17;;;;;;;9.90;5.75;;;10.10;83.90;;;;;;1924774;74;21030;-45
2021/12/29 01:09:46;;;;;;;10.98;6.12;;;10.10;84.10;;;;;;1924719;74;21015;-44
2021/12/29 01:12:16;;;;;;;10.85;6.03;;;10.10;84.20;;;;;;1924850;74;21105;-44
2021/12/29 01:14:53;;;;;;;9.33;5.03;;;10.10;84.30;;;;;;1924785;74;21026;-45
2021/12/29 01:17:16;;;;;;;10.35;5.75;;;10.10;84.50;;;;;;1923985;74;21109;-44
2021/12/29 01:19:45;;;;;;;10.45;5.65;;;10.10;84.40;;;;;;1924611;74;21174;-44
2021/12/29 01:22:15;;;;;;;9.50;5.60;;;10.10;85.30;;;;;;1924721;74;21023;-45
2021/12/29 01:24:46;;;;;;;11.38;6.28;;;10.00;84.70;;;;;;1924697;74;21019;-45
2021/12/29 01:27:16;;;;;;;7.62;5.10;;;10.00;84.80;;;;;;1924781;74;21027;-44
2021/12/29 01:29:47;;;;;;;12.50;6.12;;;10.00;84.90;;;;;;1924682;74;21088;-44
2021/12/29 01:32:16;;;;;;;8.20;5.70;;;10.00;85.00;;;;;;1924895;74;21007;-44
2021/12/29 01:34:45;;;;;;;10.23;5.85;;;10.00;85.90;;;;;;1924720;74;21015;-45
2021/12/29 01:37:17;;;;;;;10.80;5.75;;;10.00;85.40;;;;;;1924807;74;21461;-45
2021/12/29 01:39:46;;;;;;;9.70;5.72;;;10.00;85.40;;;;;;1924728;74;21019;-45
2021/12/29 01:42:15;;;;;;;10.72;5.45;;;10.00;85.50;;;;;;1924621;74;20998;-44
2021/12/29 01:44:44;;;;;;;9.58;5.37;;;10.00;85.80;;;;;;1924645;74;21125;-45
2021/12/29 01:47:14;;;;;;;8.68;5.87;;;10.00;86.20;;;;;;1924741;74;20999;-45
2021/12/29 01:49:45;;;;;;;12.90;6.08;;;10.00;85.70;;;;;;1923613;74;21472;-44
2021/12/29 01:52:20;;;;;;;9.10;5.55;;;10.00;85.80;;;;;;1924693;74;21104;-45
2021/12/29 01:54:46;;;;;;;9.15;4.95;;;10.00;85.80;;;;;;1924205;74;21034;-45
2021/12/29 01:57:15;;;;;;;7.90;5.10;;;10.00;85.90;;;;;;1924733;74;21042;-46
2021/12/29 01:59:45;;;;;;;9.13;5.42;;;10.00;86.20;;;;;;1924610;74;21101;-45
2021/12/29 02:02:14;;;;;;;10.60;6.72;;;10.00;86.10;;;;;;1924777;74;21091;-44
2021/12/29 02:04:47;;;;;;;10.43;5.53;;;10.00;86.20;;;;;;1924679;74;21019;-44
2021/12/29 02:07:16;;;;;;;8.68;5.08;;;10.00;86.30;;;;;;1924673;74;21046;-46
2021/12/29 02:09:46;;;;;;;9.90;5.50;;;10.00;86.40;;;;;;1924834;74;21058;-44
2021/12/29 02:12:16;;;;;;;9.50;6.10;;;10.00;86.90;;;;;;1924722;74;21014;-44
2021/12/29 02:14:46;;;;;;;7.40;4.90;;;10.00;86.60;;;;;;1924881;74;21022;-45
2021/12/29 02:17:15;;;;;;;9.95;6.35;;;10.00;86.60;;;;;;1924676;74;21058;-45
2021/12/29 02:19:47;;;;;;;7.15;5.55;;;9.90;86.70;;;;;;1924830;74;21018;-44
2021/12/29 02:22:41;;;;;;;9.15;5.92;;;9.90;86.70;;;;;;1924682;74;21559;-45
2021/12/29 02:25:05;;;;;;;12.45;6.10;;;9.90;86.60;;;;;;1917164;74;21108;-45
2021/12/29 02:27:23;;;;;;;10.18;6.35;;;9.90;86.90;;;;;;1922817;74;21050;-44
2021/12/29 02:29:52;;;;;;;9.20;6.03;;;9.90;87.00;;;;;;1924658;74;20994;-45
2021/12/29 02:32:23;;;;;;;12.05;6.28;;;9.90;87.00;;;;;;1924632;74;21072;-45
2021/12/29 02:34:52;;;;;;;9.50;6.47;;;9.90;87.10;;;;;;1924830;74;21030;-44
2021/12/29 02:37:22;;;;;;;8.35;6.17;;;9.90;87.30;;;;;;1924717;74;21019;-44
2021/12/29 02:39:52;;;;;;;7.85;5.90;;;9.90;87.40;;;;;;1924926;74;21030;-46
2021/12/29 02:42:26;;;;;;;11.97;5.83;;;9.90;87.70;;;;;;1924825;74;21046;-44
2021/12/29 02:44:54;;;;;;;12.28;6.03;;;9.90;87.70;;;;;;1924663;74;21437;-44
2021/12/29 02:47:23;;;;;;;13.05;8.40;;;9.90;87.60;;;;;;1924923;74;21106;-44
2021/12/29 02:49:52;;;;;;;9.20;5.50;;;9.90;87.90;;;;;;1924729;74;21346;-44
2021/12/29 02:52:24;;;;;;;8.85;5.70;;;9.90;87.70;;;;;;1924692;74;21030;-46
2021/12/29 02:54:52;;;;;;;9.75;5.60;;;9.90;87.90;;;;;;1924532;74;21088;-44
2021/12/29 02:57:22;;;;;;;11.00;6.90;;;9.90;87.70;;;;;;1924680;74;21023;-44
2021/12/29 02:59:51;;;;;;;9.03;5.67;;;9.90;87.70;;;;;;1924770;74;21088;-45
2021/12/29 03:02:21;;;;;;;9.68;5.53;;;9.90;87.60;;;;;;1924709;74;21046;-45
2021/12/29 03:04:49;;;;;;;8.90;5.90;;;9.90;87.80;;;;;;1924791;74;21096;-45
2021/12/29 03:07:18;;;;;;;12.03;5.97;;;9.90;87.80;;;;;;1924689;74;21023;-45
2021/12/29 03:09:48;;;;;;;7.55;6.03;;;9.90;87.70;;;;;;1924753;74;21010;-45
2021/12/29 03:12:17;;;;;;;8.58;5.72;;;9.90;87.60;;;;;;1924696;74;21014;-45
2021/12/29 03:14:57;;;;;;;8.80;5.83;;;10.00;87.70;;;;;;1924799;74;21555;-45
2021/12/29 03:17:27;;;;;;;9.48;5.22;;;10.00;87.80;;;;;;1924779;74;21038;-46
2021/12/29 03:19:56;;;;;;;6.67;4.47;;;10.00;87.70;;;;;;1924750;74;21080;-45
2021/12/29 03:22:26;;;;;;;12.47;5.50;;;10.00;87.70;;;;;;1924668;74;21161;-44
2021/12/29 03:24:55;;;;;;;9.65;6.15;;;10.00;87.90;;;;;;1924844;74;21026;-45
2021/12/29 03:27:24;;;;;;;8.95;6.50;;;10.00;87.80;;;;;;1924787;74;21080;-44
2021/12/29 03:29:54;;;;;;;9.70;6.33;;;10.00;87.90;;;;;;1924853;74;21019;-45
2021/12/29 03:32:37;;;;;;;11.00;6.55;;;10.00;88.10;;;;;;1924784;74;21042;-46
2021/12/29 03:34:53;;;;;;;14.38;7.20;;;9.90;87.90;;;;;;1922821;74;21097;-44
2021/12/29 03:37:22;;;;;;;9.88;5.80;;;9.90;88.00;;;;;;1924674;74;21127;-46
2021/12/29 03:39:52;;;;;;;8.73;5.92;;;10.00;88.20;;;;;;1887936;76;21083;-46
2021/12/29 03:42:21;;;;;;;10.60;5.70;;;9.90;88.10;;;;;;1878107;76;21027;-44
2021/12/29 03:44:51;;;;;;;10.80;5.28;;;10.00;88.30;;;;;;1878015;76;21014;-44
2021/12/29 03:47:20;;;;;;;11.48;4.95;;;9.90;88.10;;;;;;1878032;76;21078;-45
2021/12/29 03:49:49;;;;;;;9.55;5.60;;;9.90;88.10;;;;;;1877996;76;21132;-44
2021/12/29 03:52:19;;;;;;;8.45;6.12;;;9.90;88.10;;;;;;1878128;76;21015;-45
2021/12/29 03:54:48;;;;;;;8.98;5.95;;;9.90;88.20;;;;;;1878092;76;21039;-44
2021/12/29 03:57:17;;;;;;;8.90;6.33;;;9.90;88.10;;;;;;1878019;76;21039;-45
2021/12/29 03:59:46;;;;;;;9.93;6.58;;;9.90;88.10;;;;;;1878039;76;21515;-44
2021/12/29 04:02:15;;;;;;;6.50;5.35;;;9.90;88.30;;;;;;1874278;76;21047;-45
2021/12/29 04:04:44;;;;;;;11.10;6.58;;;9.90;88.30;;;;;;1871290;77;21015;-44
2021/12/29 04:07:14;;;;;;;10.15;5.60;;;9.90;88.40;;;;;;1871380;77;21051;-44
2021/12/29 04:09:43;;;;;;;9.65;6.35;;;9.90;88.60;;;;;;1871296;77;21079;-44
2021/12/29 04:12:13;;;;;;;11.28;6.17;;;10.00;88.90;;;;;;1871285;77;21035;-45
2021/12/29 04:14:42;;;;;;;9.15;6.37;;;10.00;88.80;;;;;;1871461;77;21031;-44
2021/12/29 04:17:13;;;;;;;9.73;5.60;;;10.00;88.80;;;;;;1871365;77;21098;-44
2021/12/29 04:22:31;;;;;;;14.38;8.28;;;10.00;89.00;;;;;;1871396;77;21058;-44
2021/12/29 04:25:00;;;;;;;14.70;6.45;;;10.00;89.10;;;;;;1871360;77;21043;-45
2021/12/29 04:27:29;;;;;;;15.93;9.53;;;10.00;89.00;;;;;;1871269;77;21035;-45
2021/12/29 04:29:59;;;;;;;19.40;10.20;;;10.00;89.10;;;;;;1871296;77;21489;-45
2021/12/29 04:32:29;;;;;;;9.20;6.12;;;10.00;89.80;;;;;;1871278;77;21127;-44
2021/12/29 04:34:58;;;;;;;7.45;5.90;;;10.00;89.30;;;;;;1871403;77;21015;-45
2021/12/29 04:37:27;;;;;;;10.38;6.83;;;10.00;89.40;;;;;;1871326;76;21113;-46
2021/12/29 04:39:56;;;;;;;9.70;6.22;;;10.00;89.30;;;;;;1871401;77;21470;-44
2021/12/29 04:42:26;;;;;;;9.05;6.15;;;10.00;89.90;;;;;;1871409;77;21113;-46
2021/12/29 04:44:55;;;;;;;13.45;6.78;;;10.00;89.30;;;;;;1871463;77;21097;-46
2021/12/29 04:47:29;;;;;;;12.85;6.60;;;10.00;89.40;;;;;;1871411;77;21035;-45
2021/12/29 04:49:59;;;;;;;11.97;7.45;;;10.00;89.60;;;;;;1871037;77;21625;-47
2021/12/29 04:52:29;;;;;;;11.63;6.75;;;10.00;89.60;;;;;;1871440;77;21055;-45
2021/12/29 04:54:59;;;;;;;9.78;5.58;;;10.00;89.70;;;;;;1871343;77;21039;-46
2021/12/29 04:57:31;;;;;;;9.83;6.45;;;10.00;89.60;;;;;;1871224;77;21030;-46
2021/12/29 04:59:59;;;;;;;8.68;5.78;;;10.00;89.60;;;;;;1871303;77;21031;-45
2021/12/29 05:02:29;;;;;;;8.83;6.05;;;10.00;89.50;;;;;;1871257;76;21125;-45
2021/12/29 05:05:02;;;;;;;10.35;7.05;;;10.00;89.40;;;;;;1871265;77;21011;-46
2021/12/29 05:10:17;;;;;;;11.48;7.40;;;10.00;89.40;;;;;;1871381;77;21173;-45
2021/12/29 05:12:46;;;;;;;10.30;5.85;;;10.10;89.90;;;;;;1871276;77;21038;-45
2021/12/29 05:15:15;;;;;;;8.33;5.95;;;10.10;89.50;;;;;;1871274;77;21113;-46
2021/12/29 05:17:45;;;;;;;10.45;6.40;;;10.10;89.40;;;;;;1871344;77;21101;-46
2021/12/29 05:20:17;;;;;;;8.00;5.92;;;10.10;89.40;;;;;;1871332;77;21148;-45
2021/12/29 05:22:45;;;;;;;10.55;6.28;;;10.10;89.40;;;;;;1870874;76;21043;-46
2021/12/29 05:25:14;;;;;;;9.78;6.40;;;10.10;89.40;;;;;;1871382;77;21430;-46
2021/12/29 05:27:43;;;;;;;14.95;8.98;;;10.10;89.40;;;;;;1871332;77;21520;-46
2021/12/29 05:30:13;;;;;;;13.45;7.05;;;10.10;89.60;;;;;;1871330;77;21113;-45
2021/12/29 05:32:43;;;;;;;17.73;9.18;;;10.10;89.70;;;;;;1871267;76;21030;-46
2021/12/29 05:35:13;;;;;;;12.30;8.65;;;10.10;89.60;;;;;;1871355;77;21047;-46
2021/12/29 05:37:43;;;;;;;11.73;6.65;;;10.10;89.60;;;;;;1871188;77;21101;-46
2021/12/29 05:40:15;;;;;;;8.65;6.08;;;10.10;89.60;;;;;;1871301;77;21043;-46
2021/12/29 05:42:44;;;;;;;9.65;5.83;;;10.10;89.60;;;;;;1871258;77;21508;-46
2021/12/29 05:45:14;;;;;;;9.88;6.15;;;10.10;89.70;;;;;;1871308;77;21069;-47
2021/12/29 05:47:44;;;;;;;10.55;6.15;;;10.10;89.60;;;;;;1871263;77;21505;-46
2021/12/29 05:50:16;;;;;;;9.55;5.70;;;10.10;89.70;;;;;;1871369;76;21075;-47
2021/12/29 05:52:45;;;;;;;10.43;5.80;;;10.10;89.70;;;;;;1871277;77;21426;-46
2021/12/29 05:55:14;;;;;;;14.18;9.78;;;10.20;89.80;;;;;;1871231;77;21089;-46
2021/12/29 05:57:44;;;;;;;15.23;8.93;;;10.20;90.00;;;;;;1871234;77;21086;-47
2021/12/29 06:00:16;;;;;;;9.45;6.45;;;10.20;89.80;;;;;;1871245;77;21148;-45
2021/12/29 06:02:46;;;;;;;12.05;7.70;;;10.20;89.80;;;;;;1871163;76;21162;-46
2021/12/29 06:05:17;;;;;;;21.23;14.63;;;10.20;89.70;;;;;;1871235;77;21181;-45
2021/12/29 06:07:47;;;;;;;17.37;10.45;;;10.20;89.70;;;;;;1871310;77;21023;-45
2021/12/29 06:10:16;;;;;;;14.68;9.80;;;10.20;89.80;;;;;;1871327;77;21081;-45
2021/12/29 06:12:45;;;;;;;10.75;8.15;;;10.20;89.80;;;;;;1871454;77;21035;-47
2021/12/29 06:15:15;;;;;;;13.78;9.95;;;10.30;89.90;;;;;;1871482;77;21043;-46
2021/12/29 06:17:45;;;;;;;22.52;14.33;;;10.30;90.00;;;;;;1871344;77;21015;-46
2021/12/29 06:20:14;;;;;;;14.98;9.15;;;10.30;90.00;;;;;;1871400;77;21039;-46
2021/12/29 06:22:44;;;;;;;11.15;7.22;;;10.30;90.00;;;;;;1871414;76;21035;-45
2021/12/29 06:25:16;;;;;;;12.80;7.58;;;10.30;90.10;;;;;;1871402;77;21070;-45
2021/12/29 06:27:46;;;;;;;11.33;7.28;;;10.30;90.00;;;;;;1871519;77;21111;-45
2021/12/29 06:30:17;;;;;;;8.43;6.05;;;10.30;90.00;;;;;;1871427;77;21493;-46
2021/12/29 06:32:46;;;;;;;8.20;5.42;;;10.30;90.00;;;;;;1871377;77;21023;-46
2021/12/29 06:35:16;;;;;;;11.15;6.45;;;10.30;90.10;;;;;;1871322;77;21015;-46
2021/12/29 06:37:46;;;;;;;11.15;6.53;;;10.30;90.00;;;;;;1871333;77;21035;-47
2021/12/29 06:40:16;;;;;;;11.05;6.75;;;10.30;90.10;;;;;;1871317;76;21039;-47
2021/12/29 06:42:46;;;;;;;15.93;5.87;;;10.30;90.00;;;;;;1871268;77;21052;-46
2021/12/29 06:45:15;;;;;;;9.10;5.28;;;10.40;90.10;;;;;;1871413;77;21535;-45
2021/12/29 06:47:48;;;;;;;10.78;6.65;;;10.40;90.00;;;;;;1871326;77;21038;-47
2021/12/29 06:50:17;;;;;;;10.65;6.55;;;10.30;90.00;;;;;;1871337;77;21039;-45
2021/12/29 06:52:47;;;;;;;11.00;6.40;;;10.40;90.00;;;;;;1871512;77;21035;-47
2021/12/29 06:55:16;;;;;;;12.98;6.28;;;10.40;89.80;;;;;;1871241;77;21516;-49
2021/12/29 06:57:46;;;;;;;9.88;5.62;;;10.40;89.70;;;;;;1871275;77;21015;-45
2021/12/29 07:00:16;;;;;;;13.45;7.28;;;10.50;89.70;;;;;;1871302;77;21043;-47
2021/12/29 07:02:45;;;;;;;11.18;5.83;;;10.50;89.60;;;;;;1871211;77;21071;-47
2021/12/29 07:05:15;;;;;;;12.75;6.10;;;10.60;89.50;;;;;;1871292;77;21027;-46
2021/12/29 07:07:46;;;;;;;14.20;6.58;;;10.60;89.40;;;;;;1871265;77;21034;-49
2021/12/29 07:10:15;;;;;;;10.40;6.42;;;10.60;89.40;;;;;;1871350;77;21007;-46
2021/12/29 07:12:44;;;;;;;9.30;6.20;;;10.60;89.40;;;;;;1871256;77;21100;-47
2021/12/29 07:15:14;;;;;;;20.60;12.75;;;10.60;89.40;;;;;;1871272;77;21121;-44
2021/12/29 07:17:44;;;;;;;10.58;6.65;;;10.70;89.40;;;;;;1871309;77;21132;-45
2021/12/29 07:20:13;;;;;;;13.72;6.62;;;10.70;89.40;;;;;;1871382;77;21136;-46
2021/12/29 07:22:43;;;;;;;11.15;6.40;;;10.70;89.10;;;;;;1871471;77;21031;-44
2021/12/29 07:25:12;;;;;;;9.20;6.22;;;10.80;89.10;;;;;;1871405;77;21074;-45
2021/12/29 07:27:41;;;;;;;8.15;5.90;;;10.80;88.90;;;;;;1871355;77;21097;-44
2021/12/29 07:30:11;;;;;;;12.95;6.30;;;10.90;88.90;;;;;;1871277;77;21101;-46
2021/12/29 07:32:41;;;;;;;13.08;6.47;;;10.90;88.80;;;;;;1871250;77;21031;-43
2021/12/29 07:35:11;;;;;;;9.88;5.83;;;10.90;88.60;;;;;;1871445;77;21062;-45
2021/12/29 07:37:40;;;;;;;8.35;4.90;;;11.00;88.60;;;;;;1871329;77;21065;-48
2021/12/29 07:40:09;;;;;;;10.13;5.67;;;11.00;88.30;;;;;;1871381;76;21023;-45
2021/12/29 07:42:41;;;;;;;8.28;6.25;;;11.00;88.30;;;;;;1871515;77;21034;-44
2021/12/29 07:45:11;;;;;;;11.35;5.97;;;11.00;88.20;;;;;;1870104;77;21027;-46
2021/12/29 07:47:48;;;;;;;7.58;5.22;;;11.10;88.60;;;;;;1870612;77;21030;-44
2021/12/29 07:50:15;;;;;;;12.25;6.53;;;11.10;87.90;;;;;;1869302;77;21090;-46
2021/12/29 07:52:47;;;;;;;10.05;5.47;;;11.20;87.80;;;;;;1870642;77;21168;-44
2021/12/29 07:55:16;;;;;;;7.80;4.90;;;11.20;87.50;;;;;;1870625;76;21066;-47
2021/12/29 07:57:46;;;;;;;10.50;5.90;;;11.20;87.00;;;;;;1869894;77;21123;-48
2021/12/29 08:00:17;;;;;;;6.78;4.75;;;11.30;87.20;;;;;;1842523;77;21180;-45
2021/12/29 08:02:47;;;;;;;10.43;6.45;;;11.30;86.90;;;;;;1839620;78;21050;-47
2021/12/29 08:05:17;;;;;;;10.72;6.47;;;11.30;86.80;;;;;;1844504;78;21118;-48
2021/12/29 08:07:48;;;;;;;10.88;6.03;;;11.30;86.90;;;;;;1845692;78;22113;-45
2021/12/29 08:10:17;;;;;;;9.90;5.20;;;11.40;86.60;;;;;;1854636;77;21084;-45
2021/12/29 08:12:47;;;;;;;8.90;5.83;;;11.30;86.80;;;;;;1855217;77;21033;-45
2021/12/29 08:15:17;;;;;;;13.62;6.58;;;11.40;86.50;;;;;;1855255;77;21033;-44
2021/12/29 08:17:46;;;;;;;11.45;7.00;;;11.40;86.30;;;;;;1855319;77;21080;-44
2021/12/29 08:20:16;;;;;;;8.75;6.50;;;11.40;86.50;;;;;;1855241;77;21578;-44
2021/12/29 08:22:45;;;;;;;9.43;5.65;;;11.40;86.30;;;;;;1855395;77;21061;-45
2021/12/29 08:25:14;;;;;;;9.78;5.37;;;11.40;86.40;;;;;;1855185;77;21068;-46
2021/12/29 08:27:44;;;;;;;9.68;5.65;;;11.40;86.30;;;;;;1855293;77;21151;-46
2021/12/29 08:30:13;;;;;;;14.30;6.00;;;11.50;86.10;;;;;;1855117;77;21081;-44
2021/12/29 08:32:42;;;;;;;8.00;4.75;;;11.50;86.00;;;;;;1855200;77;21072;-43
2021/12/29 08:35:12;;;;;;;9.95;5.70;;;11.50;85.80;;;;;;1855188;77;21006;-45
2021/12/29 08:37:43;;;;;;;13.65;6.78;;;11.50;85.40;;;;;;1855070;77;21138;-45
2021/12/29 08:40:13;;;;;;;13.60;7.00;;;11.50;85.60;;;;;;1855317;77;21077;-46
2021/12/29 08:42:43;;;;;;;10.03;5.25;;;11.60;85.70;;;;;;1855186;77;21029;-48
2021/12/29 08:45:14;;;;;;;8.53;5.53;;;11.60;85.10;;;;;;1855134;77;21025;-46
2021/12/29 08:47:45;;;;;;;9.00;5.37;;;11.50;85.20;;;;;;1855171;77;21100;-45
2021/12/29 08:50:16;;;;;;;10.05;5.60;;;11.60;85.30;;;;;;1855275;77;21099;-45
2021/12/29 08:52:46;;;;;;;7.20;5.70;;;11.60;85.50;;;;;;1855150;77;21088;-44
2021/12/29 08:55:15;;;;;;;8.75;6.28;;;11.60;85.40;;;;;;1855347;77;21131;-46
2021/12/29 08:57:45;;;;;;;8.55;5.25;;;11.60;85.30;;;;;;1855456;77;21146;-47
2021/12/29 09:00:16;;;;;;;6.97;4.80;;;11.60;85.40;;;;;;1855222;77;21154;-47
2021/12/29 09:02:45;;;;;;;8.83;5.28;;;11.60;84.50;;;;;;1855375;77;21509;-46
2021/12/29 09:05:16;;;;;;;9.10;4.62;;;11.70;85.10;;;;;;1853791;77;21143;-48
2021/12/29 09:07:47;;;;;;;7.35;5.05;;;11.70;84.60;;;;;;1852612;77;21022;-48
2021/12/29 09:10:18;;;;;;;7.40;5.28;;;11.80;84.30;;;;;;1852720;77;21091;-47
2021/12/29 09:12:49;;;;;;;7.25;4.90;;;11.80;84.10;;;;;;1852676;77;21049;-44
2021/12/29 09:15:20;;;;;;;6.42;5.15;;;11.90;83.50;;;;;;1852820;77;21440;-47
2021/12/29 09:17:49;;;;;;;9.98;5.22;;;11.90;83.80;;;;;;1852553;77;21069;-47
2021/12/29 09:20:27;;;;;;;7.15;4.78;;;11.90;83.40;;;;;;1852568;77;21089;-45
2021/12/29 09:22:58;;;;;;;9.58;4.78;;;11.90;83.30;;;;;;1852534;77;21027;-45
2021/12/29 09:25:27;;;;;;;10.50;5.83;;;11.90;82.60;;;;;;1840458;78;21528;-48
2021/12/29 09:27:57;;;;;;;6.95;5.08;;;12.00;82.60;;;;;;1840421;78;21042;-46
2021/12/29 09:30:29;;;;;;;8.40;4.97;;;12.00;82.10;;;;;;1852600;77;21063;-48
2021/12/29 09:32:59;;;;;;;8.45;4.60;;;12.00;81.70;;;;;;1852852;77;21106;-45
2021/12/29 09:35:28;;;;;;;7.40;4.72;;;12.00;81.60;;;;;;1852567;77;21136;-44
2021/12/29 09:37:58;;;;;;;11.03;5.53;;;12.00;81.80;;;;;;1852444;77;21090;-47
2021/12/29 09:40:27;;;;;;;11.18;5.28;;;12.00;81.90;;;;;;1852703;77;21074;-45
2021/12/29 09:42:57;;;;;;;6.80;4.25;;;12.10;81.90;;;;;;1852558;77;21070;-43
2021/12/29 09:45:27;;;;;;;8.08;4.12;;;12.00;80.90;;;;;;1852474;77;21181;-44
2021/12/29 09:47:57;;;;;;;5.87;4.17;;;12.10;80.50;;;;;;1852562;77;21093;-46
2021/12/29 09:50:27;;;;;;;7.47;4.47;;;12.10;80.10;;;;;;1852343;77;21161;-46
2021/12/29 09:52:58;;;;;;;8.53;4.80;;;12.10;80.40;;;;;;1852602;77;21007;-45
2021/12/29 09:55:35;;;;;;;9.68;4.55;;;12.10;80.90;;;;;;1852658;77;21023;-44
2021/12/29 09:58:06;;;;;;;10.55;4.47;;;12.10;81.00;;;;;;1846638;77;21089;-46
2021/12/29 10:00:50;;;;;;;9.38;5.00;;;12.10;80.40;;;;;;1852231;77;21064;-44
2021/12/29 10:03:23;;;;;;;9.00;4.42;;;12.10;80.00;;;;;;1852469;76;21509;-48
2021/12/29 10:05:55;;;;;;;10.10;5.10;;;12.10;80.40;;;;;;1845156;77;21154;-45
2021/12/29 10:08:29;;;;;;;13.08;6.03;;;12.10;80.30;;;;;;1837195;78;21107;-45
2021/12/29 10:11:03;;;;;;;12.33;5.53;;;12.10;80.40;;;;;;1837161;77;21174;-46
2021/12/29 10:13:35;;;;;;;7.75;4.90;;;12.10;80.20;;;;;;1836960;78;21580;-45
2021/12/29 10:16:08;;;;;;;9.88;4.80;;;12.10;80.40;;;;;;1836919;77;21127;-45
2021/12/29 10:18:41;;;;;;;7.92;4.30;;;12.10;80.70;;;;;;1872129;77;21054;-45
2021/12/29 10:21:22;;;;;;;10.60;5.62;;;12.10;80.40;;;;;;1871960;77;21469;-47
2021/12/29 10:23:53;;;;;;;8.10;3.80;;;12.10;80.50;;;;;;1872099;77;21079;-48
2021/12/29 10:26:25;;;;;;;8.93;4.60;;;12.10;80.10;;;;;;1872269;76;21133;-47
2021/12/29 10:29:00;;;;;;;7.90;4.28;;;12.10;79.90;;;;;;1872089;77;21070;-48
2021/12/29 10:31:32;;;;;;;10.70;4.45;;;12.20;80.20;;;;;;1872199;77;21098;-46
2021/12/29 10:34:04;;;;;;;9.33;6.33;;;12.10;79.90;;;;;;1872006;76;21031;-43
2021/12/29 10:36:46;;;;;;;7.53;4.47;;;12.20;79.30;;;;;;1872175;77;21426;-44
2021/12/29 10:39:18;;;;;;;9.23;4.25;;;12.20;79.00;;;;;;1872806;75;21109;-45
2021/12/29 10:41:59;;;;;;;7.17;3.98;;;12.20;78.20;;;;;;1872091;76;21070;-44
2021/12/29 10:44:33;;;;;;;12.63;4.50;;;12.20;78.60;;;;;;1872201;75;21062;-46
2021/12/29 10:47:05;;;;;;;6.65;4.03;;;12.20;78.10;;;;;;1872367;75;21176;-45
2021/12/29 10:49:35;;;;;;;9.03;4.70;;;12.20;78.20;;;;;;1864873;76;21131;-47
2021/12/29 10:52:04;;;;;;;6.45;3.98;;;12.20;78.40;;;;;;1872159;75;21163;-48
2021/12/29 10:54:34;;;;;;;7.53;4.42;;;12.10;78.60;;;;;;1872332;76;21093;-49
2021/12/29 10:57:08;;;;;;;7.17;4.28;;;12.10;78.50;;;;;;1872183;75;21078;-48
2021/12/29 10:59:42;;;;;;;14.10;5.17;;;12.10;77.90;;;;;;1872450;75;20991;-46
2021/12/29 11:02:12;;;;;;;8.35;4.67;;;12.10;78.60;;;;;;1872390;77;21458;-46
2021/12/29 11:04:41;;;;;;;12.23;5.45;;;12.10;78.30;;;;;;1872076;75;21030;-44
2021/12/29 11:07:11;;;;;;;8.45;4.92;;;12.10;78.30;;;;;;1872357;76;21054;-46
2021/12/29 11:09:40;;;;;;;10.93;4.97;;;12.10;78.40;;;;;;1872203;76;21106;-44
2021/12/29 11:12:15;;;;;;;11.50;5.20;;;12.10;78.10;;;;;;1872047;77;21027;-45
2021/12/29 11:14:44;;;;;;;7.50;4.95;;;12.10;78.40;;;;;;1872480;77;21598;-47
2021/12/29 11:17:16;;;;;;;11.40;5.40;;;12.10;78.70;;;;;;1872684;75;21105;-45
2021/12/29 11:19:54;;;;;;;12.07;6.67;;;12.10;78.60;;;;;;1871743;76;21051;-46
2021/12/29 11:22:26;;;;;;;8.83;5.10;;;12.00;78.70;;;;;;1872881;76;21426;-45
2021/12/29 11:25:03;;;;;;;4.00;3.00;;;12.10;78.80;;;;;;1872810;76;21054;-45
2021/12/29 11:27:35;;;;;;;5.67;3.35;;;12.00;80.20;;;;;;1873028;77;21023;-46
2021/12/29 11:30:09;;;;;;;3.70;3.22;;;11.90;80.40;;;;;;1873045;77;21174;-47
2021/12/29 11:32:45;;;;;;;6.15;4.37;;;11.70;81.10;;;;;;1873141;76;21051;-46
2021/12/29 11:35:17;;;;;;;4.40;3.40;;;11.50;81.40;;;;;;1873028;75;21104;-45
2021/12/29 11:37:55;;;;;;;8.40;4.58;;;11.30;81.80;;;;;;1872929;75;21050;-45
2021/12/29 11:40:27;;;;;;;4.92;3.77;;;11.20;82.70;;;;;;1872921;76;21622;-45
2021/12/29 11:42:57;;;;;;;4.40;3.10;;;11.10;83.00;;;;;;1872809;75;21090;-46
2021/12/29 11:45:27;;;;;;;5.12;3.62;;;11.00;83.70;;;;;;1873076;76;21007;-45
2021/12/29 11:47:56;;;;;;;4.97;4.00;;;10.90;84.20;;;;;;1872863;77;21035;-48
2021/12/29 11:50:28;;;;;;;8.20;3.35;;;10.80;84.50;;;;;;1873012;76;21458;-47
2021/12/29 11:53:20;;;;;;;4.15;3.08;;;10.60;84.90;;;;;;1872832;75;21097;-45
2021/12/29 11:55:58;;;;;;;5.03;3.77;;;10.50;85.50;;;;;;1872858;76;21046;-46
2021/12/29 11:58:34;;;;;;;5.25;4.28;;;10.40;85.60;;;;;;1872972;76;21465;-46
2021/12/29 12:01:11;;;;;;;6.28;4.47;;;10.30;85.60;;;;;;1872835;76;20995;-47
2021/12/29 12:03:58;;;;;;;6.05;4.60;;;10.30;85.20;;;;;;1873079;75;21047;-47
2021/12/29 12:06:42;;;;;;;7.42;5.37;;;10.30;85.70;;;;;;1872813;74;21121;-47
2021/12/29 12:09:21;;;;;;;6.60;5.33;;;10.20;86.60;;;;;;1873055;76;21100;-46
2021/12/29 12:12:03;;;;;;;6.60;4.05;;;10.20;86.20;;;;;;1872348;76;21737;-46
2021/12/29 12:14:38;;;;;;;5.72;5.03;;;10.20;86.20;;;;;;1872862;76;21023;-46
2021/12/29 12:17:07;;;;;;;;;;;10.20;86.00;;;;;;1875262;76;21112;-47
2021/12/29 12:19:37;;;;;;;6.95;4.80;;;10.20;87.20;;;;;;1872800;75;20100;-48
2021/12/29 12:22:17;;;;;;;10.20;5.80;;;10.10;86.60;;;;;;1872867;75;21063;-50
2021/12/29 12:25:03;;;;;;;8.25;5.67;;;10.10;86.60;;;;;;1872962;75;21015;-49
2021/12/29 12:27:38;;;;;;;8.83;5.90;;;10.10;86.90;;;;;;1872955;76;21019;-48
2021/12/29 12:30:14;;;;;;;;;;;10.10;86.30;;;;;;1875638;75;21096;-50
2021/12/29 12:32:57;;;;;;;8.20;6.70;;;10.10;87.40;;;;;;1872965;75;20103;-48
2021/12/29 12:35:35;;;;;;;8.68;5.62;;;10.10;86.60;;;;;;1854975;76;21531;-49
2021/12/29 12:38:17;;;;;;;9.90;7.05;;;10.10;86.80;;;;;;1872922;76;21340;-49
2021/12/29 12:40:47;;;;;;;8.55;6.25;;;10.10;87.00;;;;;;1872158;76;21023;-46
2021/12/29 12:43:17;;;;;;;5.92;5.20;;;10.00;87.60;;;;;;1872833;75;21093;-46
2021/12/29 12:45:53;;;;;;;10.20;6.72;;;10.00;87.40;;;;;;1872817;75;21027;-48
2021/12/29 12:48:28;;;;;;;7.70;5.45;;;10.00;87.10;;;;;;1871898;76;21085;-46
2021/12/29 12:50:59;;;;;;;9.28;5.42;;;10.00;87.50;;;;;;1872825;75;21003;-48
2021/12/29 12:53:34;;;;;;;7.30;5.97;;;9.90;87.40;;;;;;1872885;75;21062;-48
2021/12/29 12:56:05;;;;;;;;;;;9.90;87.40;;;;;;1875659;76;21046;-45
2021/12/29 12:58:40;;;;;;;6.45;4.60;;;9.90;88.40;;;;;;1872735;77;20108;-48
2021/12/29 13:01:18;;;;;;;5.30;4.70;;;9.90;87.90;;;;;;1873107;75;21026;-47
2021/12/29 13:03:47;;;;;;;7.72;5.10;;;9.90;87.60;;;;;;1872119;76;21027;-46
2021/12/29 13:06:22;;;;;;;6.58;5.08;;;9.90;87.90;;;;;;1872644;74;21109;-49
2021/12/29 13:08:52;;;;;;;7.65;5.80;;;9.90;87.80;;;;;;1872877;75;21130;-48
2021/12/29 13:11:31;;;;;;;8.40;6.42;;;9.90;88.60;;;;;;1872894;77;21027;-46